sensor_id;sensor_type;location;lat;lon;timestamp;pressure;altitude;pressure_sealevel;temperature;humidity
61109;BME280;46995;55.740;37.402;2023-01-31T00:02:43;97512.91;;;-1.51;87.52
61109;BME280;46995;55.740;37.402;2023-01-31T00:05:09;97469.81;;;-1.76;89.00
61109;BME280;46995;55.740;37.402;2023-01-31T00:07:35;97489.66;;;-1.63;89.48
61109;BME280;46995;55.740;37.402;2023-01-31T00:10:00;97483.84;;;-1.67;90.01
61109;BME280;46995;55.740;37.402;2023-01-31T00:12:26;97524.50;;;-1.44;90.61
61109;BME280;46995;55.740;37.402;2023-01-31T00:14:52;97518.81;;;-1.49;90.45
61109;BME280;46995;55.740;37.402;2023-01-31T00:17:18;97498.34;;;-1.52;90.26
61109;BME280;46995;55.740;37.402;2023-01-31T00:19:44;97530.50;;;-1.43;89.86
61109;BME280;46995;55.740;37.402;2023-01-31T00:22:12;97549.63;;;-1.33;90.06
61109;BME280;46995;55.740;37.402;2023-01-31T00:24:38;97512.63;;;-1.59;89.84
61109;BME280;46995;55.740;37.402;2023-01-31T00:27:04;97517.38;;;-1.53;90.32
61109;BME280;46995;55.740;37.402;2023-01-31T00:29:30;97495.69;;;-1.76;90.40
61109;BME280;46995;55.740;37.402;2023-01-31T00:31:55;97508.94;;;-1.67;90.65
61109;BME280;46995;55.740;37.402;2023-01-31T00:34:21;97515.31;;;-1.60;90.96
61109;BME280;46995;55.740;37.402;2023-01-31T00:36:47;97532.59;;;-1.48;90.22
61109;BME280;46995;55.740;37.402;2023-01-31T00:39:13;97539.94;;;-1.42;90.71
61109;BME280;46995;55.740;37.402;2023-01-31T00:41:39;97544.69;;;-1.49;90.60
61109;BME280;46995;55.740;37.402;2023-01-31T00:44:05;97532.78;;;-1.51;90.62
61109;BME280;46995;55.740;37.402;2023-01-31T00:46:32;97548.63;;;-1.43;90.45
61109;BME280;46995;55.740;37.402;2023-01-31T00:48:57;97554.59;;;-1.30;90.39
61109;BME280;46995;55.740;37.402;2023-01-31T00:51:25;97499.28;;;-1.65;90.22
61109;BME280;46995;55.740;37.402;2023-01-31T00:53:51;97532.50;;;-1.47;90.06
61109;BME280;46995;55.740;37.402;2023-01-31T00:56:19;97499.69;;;-1.59;89.88
61109;BME280;46995;55.740;37.402;2023-01-31T00:58:48;97528.34;;;-1.49;89.85
61109;BME280;46995;55.740;37.402;2023-01-31T01:01:20;97489.66;;;-1.63;90.10
61109;BME280;46995;55.740;37.402;2023-01-31T01:03:49;97527.50;;;-1.50;89.59
61109;BME280;46995;55.740;37.402;2023-01-31T01:06:15;97558.25;;;-1.33;89.23
61109;BME280;46995;55.740;37.402;2023-01-31T01:08:43;97537.25;;;-1.53;89.71
61109;BME280;46995;55.740;37.402;2023-01-31T01:11:17;97555.25;;;-1.39;89.52
61109;BME280;46995;55.740;37.402;2023-01-31T01:13:43;97567.66;;;-1.32;89.10
61109;BME280;46995;55.740;37.402;2023-01-31T01:16:12;97555.53;;;-1.31;89.50
61109;BME280;46995;55.740;37.402;2023-01-31T01:18:39;97588.84;;;-1.14;89.03
61109;BME280;46995;55.740;37.402;2023-01-31T01:21:10;97521.69;;;-1.41;88.62
61109;BME280;46995;55.740;37.402;2023-01-31T01:23:37;97512.59;;;-1.46;88.67
61109;BME280;46995;55.740;37.402;2023-01-31T01:26:04;97516.13;;;-1.47;88.55
61109;BME280;46995;55.740;37.402;2023-01-31T01:28:34;97557.19;;;-1.30;88.11
61109;BME280;46995;55.740;37.402;2023-01-31T01:31:10;97565.94;;;-1.20;88.44
61109;BME280;46995;55.740;37.402;2023-01-31T01:33:39;97543.72;;;-1.35;88.47
61109;BME280;46995;55.740;37.402;2023-01-31T01:36:07;97545.50;;;-1.36;88.06
61109;BME280;46995;55.740;37.402;2023-01-31T01:38:36;97537.34;;;-1.42;87.67
61109;BME280;46995;55.740;37.402;2023-01-31T01:41:03;97572.94;;;-1.20;87.57
61109;BME280;46995;55.740;37.402;2023-01-31T01:43:39;97592.44;;;-1.04;87.29
61109;BME280;46995;55.740;37.402;2023-01-31T01:46:07;97540.31;;;-1.36;86.67
61109;BME280;46995;55.740;37.402;2023-01-31T01:48:33;97573.28;;;-1.14;86.27
61109;BME280;46995;55.740;37.402;2023-01-31T01:51:02;97582.06;;;-1.04;86.66
61109;BME280;46995;55.740;37.402;2023-01-31T01:53:28;97533.19;;;-1.32;86.21
61109;BME280;46995;55.740;37.402;2023-01-31T01:56:32;97547.63;;;-1.17;87.47
61109;BME280;46995;55.740;37.402;2023-01-31T02:01:34;97542.16;;;-1.25;89.30
61109;BME280;46995;55.740;37.402;2023-01-31T02:04:04;97489.53;;;-1.62;89.70
61109;BME280;46995;55.740;37.402;2023-01-31T02:06:31;97509.28;;;-1.48;89.79
61109;BME280;46995;55.740;37.402;2023-01-31T02:08:58;97506.91;;;-1.51;89.70
61109;BME280;46995;55.740;37.402;2023-01-31T02:11:28;97577.31;;;-1.10;89.36
61109;BME280;46995;55.740;37.402;2023-01-31T02:14:01;97474.47;;;-1.68;89.71
61109;BME280;46995;55.740;37.402;2023-01-31T02:16:28;97521.59;;;-1.39;89.48
61109;BME280;46995;55.740;37.402;2023-01-31T02:18:55;97535.13;;;-1.23;88.90
61109;BME280;46995;55.740;37.402;2023-01-31T02:24:40;97554.81;;;-0.97;89.18
61109;BME280;46995;55.740;37.402;2023-01-31T02:38:11;97574.59;;;-0.96;87.36
61109;BME280;46995;55.740;37.402;2023-01-31T02:40:53;97567.53;;;-0.94;86.89
61109;BME280;46995;55.740;37.402;2023-01-31T02:43:36;97527.44;;;-1.24;86.49
61109;BME280;46995;55.740;37.402;2023-01-31T02:49:21;97534.25;;;-1.11;86.23
61109;BME280;46995;55.740;37.402;2023-01-31T02:52:19;97538.81;;;-1.14;85.91
61109;BME280;46995;55.740;37.402;2023-01-31T02:55:00;97589.72;;;-0.90;85.71
61109;BME280;46995;55.740;37.402;2023-01-31T02:57:49;97555.56;;;-1.07;85.88
61109;BME280;46995;55.740;37.402;2023-01-31T03:00:17;97530.34;;;-1.16;85.62
61109;BME280;46995;55.740;37.402;2023-01-31T03:02:44;97546.97;;;-1.08;85.47
61109;BME280;46995;55.740;37.402;2023-01-31T03:05:16;97556.81;;;-1.00;84.67
61109;BME280;46995;55.740;37.402;2023-01-31T03:07:50;97501.19;;;-1.31;84.57
61109;BME280;46995;55.740;37.402;2023-01-31T03:13:23;97580.56;;;-0.82;84.64
61109;BME280;46995;55.740;37.402;2023-01-31T03:21:36;97540.25;;;-1.10;84.15
61109;BME280;46995;55.740;37.402;2023-01-31T03:24:04;97561.34;;;-1.04;84.01
61109;BME280;46995;55.740;37.402;2023-01-31T03:26:32;97554.97;;;-1.11;83.78
61109;BME280;46995;55.740;37.402;2023-01-31T03:29:00;97488.78;;;-1.51;83.76
61109;BME280;46995;55.740;37.402;2023-01-31T03:31:59;97496.84;;;-1.43;84.11
61109;BME280;46995;55.740;37.402;2023-01-31T03:34:28;97555.41;;;-1.17;84.19
61109;BME280;46995;55.740;37.402;2023-01-31T03:37:14;97601.28;;;-0.82;83.88
61109;BME280;46995;55.740;37.402;2023-01-31T03:47:44;97552.06;;;-1.19;83.47
61109;BME280;46995;55.740;37.402;2023-01-31T03:50:20;97604.16;;;-0.74;83.58
61109;BME280;46995;55.740;37.402;2023-01-31T03:52:58;97606.63;;;-0.73;83.35
61109;BME280;46995;55.740;37.402;2023-01-31T03:55:56;97611.38;;;-0.67;83.38
61109;BME280;46995;55.740;37.402;2023-01-31T03:58:30;97549.56;;;-1.08;83.50
61109;BME280;46995;55.740;37.402;2023-01-31T04:01:01;97569.53;;;-0.97;83.60
61109;BME280;46995;55.740;37.402;2023-01-31T04:03:38;97567.03;;;-0.99;83.45
61109;BME280;46995;55.740;37.402;2023-01-31T04:06:05;97596.09;;;-0.82;83.74
61109;BME280;46995;55.740;37.402;2023-01-31T04:08:32;97617.78;;;-0.60;83.98
61109;BME280;46995;55.740;37.402;2023-01-31T04:11:05;97580.78;;;-0.86;83.59
61109;BME280;46995;55.740;37.402;2023-01-31T04:13:33;97571.09;;;-0.95;83.09
61109;BME280;46995;55.740;37.402;2023-01-31T04:15:59;97589.00;;;-0.92;83.02
61109;BME280;46995;55.740;37.402;2023-01-31T04:18:25;97569.84;;;-1.02;82.93
61109;BME280;46995;55.740;37.402;2023-01-31T04:20:54;97557.06;;;-1.16;82.62
61109;BME280;46995;55.740;37.402;2023-01-31T04:23:22;97504.53;;;-1.42;82.82
61109;BME280;46995;55.740;37.402;2023-01-31T04:25:52;97619.91;;;-0.77;83.20
61109;BME280;46995;55.740;37.402;2023-01-31T04:28:20;97511.97;;;-1.37;83.21
61109;BME280;46995;55.740;37.402;2023-01-31T04:30:55;97572.38;;;-1.13;83.28
61109;BME280;46995;55.740;37.402;2023-01-31T04:33:24;97602.44;;;-0.87;83.36
61109;BME280;46995;55.740;37.402;2023-01-31T04:35:51;97517.56;;;-1.43;83.80
61109;BME280;46995;55.740;37.402;2023-01-31T04:38:18;97637.84;;;-0.74;83.86
61109;BME280;46995;55.740;37.402;2023-01-31T04:40:44;97585.81;;;-1.08;83.25
61109;BME280;46995;55.740;37.402;2023-01-31T04:43:13;97583.63;;;-1.01;83.04
61109;BME280;46995;55.740;37.402;2023-01-31T04:45:39;97631.34;;;-0.80;83.47
61109;BME280;46995;55.740;37.402;2023-01-31T04:48:05;97617.97;;;-0.87;83.51
61109;BME280;46995;55.740;37.402;2023-01-31T04:50:32;97627.19;;;-0.82;82.74
61109;BME280;46995;55.740;37.402;2023-01-31T04:53:01;97605.56;;;-0.94;83.18
61109;BME280;46995;55.740;37.402;2023-01-31T04:55:27;97623.28;;;-0.88;83.15
61109;BME280;46995;55.740;37.402;2023-01-31T04:57:53;97597.41;;;-1.01;83.48
61109;BME280;46995;55.740;37.402;2023-01-31T05:00:19;97635.09;;;-0.84;83.42
61109;BME280;46995;55.740;37.402;2023-01-31T05:02:45;97555.09;;;-1.25;83.73
61109;BME280;46995;55.740;37.402;2023-01-31T05:05:11;97520.84;;;-1.41;83.32
61109;BME280;46995;55.740;37.402;2023-01-31T05:07:38;97597.41;;;-1.01;83.53
61109;BME280;46995;55.740;37.402;2023-01-31T05:10:05;97588.50;;;-1.09;83.45
61109;BME280;46995;55.740;37.402;2023-01-31T05:12:34;97643.13;;;-0.76;83.84
61109;BME280;46995;55.740;37.402;2023-01-31T05:15:00;97664.38;;;-0.71;83.44
61109;BME280;46995;55.740;37.402;2023-01-31T05:17:26;97651.34;;;-0.82;83.83
61109;BME280;46995;55.740;37.402;2023-01-31T05:20:00;97636.78;;;-0.96;83.87
61109;BME280;46995;55.740;37.402;2023-01-31T05:22:29;97597.84;;;-1.19;84.01
61109;BME280;46995;55.740;37.402;2023-01-31T05:24:55;97614.81;;;-1.03;84.01
61109;BME280;46995;55.740;37.402;2023-01-31T05:27:21;97640.47;;;-0.87;83.97
61109;BME280;46995;55.740;37.402;2023-01-31T05:29:47;97678.38;;;-0.73;83.96
61109;BME280;46995;55.740;37.402;2023-01-31T05:32:13;97667.63;;;-0.80;83.97
61109;BME280;46995;55.740;37.402;2023-01-31T05:34:42;97644.13;;;-0.90;84.06
61109;BME280;46995;55.740;37.402;2023-01-31T05:37:08;97612.66;;;-1.09;84.12
61109;BME280;46995;55.740;37.402;2023-01-31T05:39:37;97653.84;;;-0.80;84.43
61109;BME280;46995;55.740;37.402;2023-01-31T05:42:05;97622.91;;;-0.95;84.54
61109;BME280;46995;55.740;37.402;2023-01-31T05:44:35;97671.13;;;-0.68;84.08
61109;BME280;46995;55.740;37.402;2023-01-31T05:47:04;97665.72;;;-0.65;84.28
61109;BME280;46995;55.740;37.402;2023-01-31T05:49:30;97631.38;;;-0.93;83.98
61109;BME280;46995;55.740;37.402;2023-01-31T05:51:58;97640.88;;;-0.80;83.81
61109;BME280;46995;55.740;37.402;2023-01-31T05:54:24;97674.66;;;-0.69;83.79
61109;BME280;46995;55.740;37.402;2023-01-31T05:56:53;97649.81;;;-0.84;83.77
61109;BME280;46995;55.740;37.402;2023-01-31T05:59:22;97602.72;;;-1.15;83.76
61109;BME280;46995;55.740;37.402;2023-01-31T06:01:48;97620.94;;;-1.04;83.93
61109;BME280;46995;55.740;37.402;2023-01-31T06:04:19;97659.63;;;-0.77;83.79
61109;BME280;46995;55.740;37.402;2023-01-31T06:06:51;97659.00;;;-0.80;83.63
61109;BME280;46995;55.740;37.402;2023-01-31T06:09:20;97628.00;;;-1.06;83.71
61109;BME280;46995;55.740;37.402;2023-01-31T06:11:46;97644.94;;;-0.89;83.65
61109;BME280;46995;55.740;37.402;2023-01-31T06:14:12;97620.00;;;-1.03;84.08
61109;BME280;46995;55.740;37.402;2023-01-31T06:16:41;97624.53;;;-0.94;83.54
61109;BME280;46995;55.740;37.402;2023-01-31T06:19:07;97695.94;;;-0.53;83.82
61109;BME280;46995;55.740;37.402;2023-01-31T06:21:35;97646.88;;;-0.80;82.88
61109;BME280;46995;55.740;37.402;2023-01-31T06:32:52;97710.44;;;-0.51;83.31
61109;BME280;46995;55.740;37.402;2023-01-31T06:35:18;97665.53;;;-0.75;83.10
61109;BME280;46995;55.740;37.402;2023-01-31T06:37:43;97665.34;;;-0.84;83.11
61109;BME280;46995;55.740;37.402;2023-01-31T06:40:10;97701.97;;;-0.53;83.04
61109;BME280;46995;55.740;37.402;2023-01-31T06:42:36;97697.41;;;-0.62;83.10
61109;BME280;46995;55.740;37.402;2023-01-31T06:45:02;97674.22;;;-0.76;82.93
61109;BME280;46995;55.740;37.402;2023-01-31T06:47:29;97668.94;;;-0.74;82.92
61109;BME280;46995;55.740;37.402;2023-01-31T06:49:55;97698.25;;;-0.61;83.05
61109;BME280;46995;55.740;37.402;2023-01-31T06:52:21;97702.72;;;-0.63;83.04
61109;BME280;46995;55.740;37.402;2023-01-31T06:54:47;97735.00;;;-0.44;83.22
61109;BME280;46995;55.740;37.402;2023-01-31T06:57:13;97690.63;;;-0.75;82.95
61109;BME280;46995;55.740;37.402;2023-01-31T06:59:39;97718.78;;;-0.58;83.08
61109;BME280;46995;55.740;37.402;2023-01-31T07:02:05;97739.56;;;-0.47;82.54
61109;BME280;46995;55.740;37.402;2023-01-31T07:04:31;97640.94;;;-1.06;83.10
61109;BME280;46995;55.740;37.402;2023-01-31T07:06:57;97681.41;;;-0.79;82.83
61109;BME280;46995;55.740;37.402;2023-01-31T07:09:23;97714.19;;;-0.55;82.75
61109;BME280;46995;55.740;37.402;2023-01-31T07:11:49;97661.44;;;-0.90;82.43
61109;BME280;46995;55.740;37.402;2023-01-31T07:14:15;97709.44;;;-0.61;82.85
61109;BME280;46995;55.740;37.402;2023-01-31T07:16:41;97717.94;;;-0.59;82.50
61109;BME280;46995;55.740;37.402;2023-01-31T07:19:07;97730.16;;;-0.48;82.58
61109;BME280;46995;55.740;37.402;2023-01-31T07:21:33;97725.41;;;-0.54;82.82
61109;BME280;46995;55.740;37.402;2023-01-31T07:24:00;97748.13;;;-0.21;82.74
61109;BME280;46995;55.740;37.402;2023-01-31T07:26:26;97685.00;;;-0.69;82.36
61109;BME280;46995;55.740;37.402;2023-01-31T07:28:54;97684.88;;;-0.68;82.17
61109;BME280;46995;55.740;37.402;2023-01-31T07:31:20;97742.97;;;-0.34;82.46
61109;BME280;46995;55.740;37.402;2023-01-31T07:33:46;97706.31;;;-0.53;82.37
61109;BME280;46995;55.740;37.402;2023-01-31T07:36:14;97723.09;;;-0.46;82.14
61109;BME280;46995;55.740;37.402;2023-01-31T07:38:40;97721.66;;;-0.50;82.40
61109;BME280;46995;55.740;37.402;2023-01-31T07:41:10;97733.19;;;-0.54;82.00
61109;BME280;46995;55.740;37.402;2023-01-31T07:43:42;97711.94;;;-0.59;82.15
61109;BME280;46995;55.740;37.402;2023-01-31T07:46:08;97722.06;;;-0.56;82.05
61109;BME280;46995;55.740;37.402;2023-01-31T07:48:36;97775.59;;;-0.19;82.04
61109;BME280;46995;55.740;37.402;2023-01-31T07:51:03;97770.34;;;-0.30;82.46
61109;BME280;46995;55.740;37.402;2023-01-31T07:53:36;97738.13;;;-0.51;82.16
61109;BME280;46995;55.740;37.402;2023-01-31T07:56:14;97749.00;;;-0.33;81.73
61109;BME280;46995;55.740;37.402;2023-01-31T07:58:41;97738.44;;;-0.43;81.90
61109;BME280;46995;55.740;37.402;2023-01-31T08:01:20;97759.53;;;-0.24;81.57
61109;BME280;46995;55.740;37.402;2023-01-31T08:04:07;97774.34;;;-0.13;81.89
61109;BME280;46995;55.740;37.402;2023-01-31T08:06:38;97739.44;;;-0.33;82.04
61109;BME280;46995;55.740;37.402;2023-01-31T08:09:06;97698.25;;;-0.61;81.21
61109;BME280;46995;55.740;37.402;2023-01-31T08:11:32;97800.25;;;-0.01;81.50
61109;BME280;46995;55.740;37.402;2023-01-31T08:14:09;97780.69;;;-0.17;81.83
61109;BME280;46995;55.740;37.402;2023-01-31T08:16:35;97699.41;;;-0.65;81.57
61109;BME280;46995;55.740;37.402;2023-01-31T08:19:01;97814.66;;;0.04;81.72
61109;BME280;46995;55.740;37.402;2023-01-31T08:21:28;97740.69;;;-0.38;81.90
61109;BME280;46995;55.740;37.402;2023-01-31T08:23:54;97732.53;;;-0.45;81.76
61109;BME280;46995;55.740;37.402;2023-01-31T08:26:27;97736.53;;;-0.41;81.27
61109;BME280;46995;55.740;37.402;2023-01-31T08:28:56;97751.47;;;-0.32;80.88
61109;BME280;46995;55.740;37.402;2023-01-31T08:31:48;97808.03;;;-0.01;81.08
61109;BME280;46995;55.740;37.402;2023-01-31T08:34:16;97790.94;;;-0.16;80.84
61109;BME280;46995;55.740;37.402;2023-01-31T08:37:18;97778.59;;;-0.12;81.37
61109;BME280;46995;55.740;37.402;2023-01-31T08:39:44;97775.91;;;-0.11;81.80
61109;BME280;46995;55.740;37.402;2023-01-31T08:42:21;97740.44;;;-0.23;81.53
61109;BME280;46995;55.740;37.402;2023-01-31T08:44:49;97798.09;;;-0.07;80.98
61109;BME280;46995;55.740;37.402;2023-01-31T08:47:15;97800.94;;;0.02;80.63
61109;BME280;46995;55.740;37.402;2023-01-31T08:49:44;97780.84;;;-0.08;80.60
61109;BME280;46995;55.740;37.402;2023-01-31T08:52:10;97812.13;;;0.15;80.50
61109;BME280;46995;55.740;37.402;2023-01-31T08:54:44;97815.59;;;0.26;80.21
61109;BME280;46995;55.740;37.402;2023-01-31T08:57:12;97765.88;;;-0.04;80.23
61109;BME280;46995;55.740;37.402;2023-01-31T08:59:41;97762.75;;;0.04;80.48
61109;BME280;46995;55.740;37.402;2023-01-31T09:02:09;97795.66;;;0.27;80.52
61109;BME280;46995;55.740;37.402;2023-01-31T09:04:38;97802.31;;;0.31;80.62
61109;BME280;46995;55.740;37.402;2023-01-31T09:07:07;97770.81;;;0.12;79.91
61109;BME280;46995;55.740;37.402;2023-01-31T09:09:36;97780.22;;;0.25;80.30
61109;BME280;46995;55.740;37.402;2023-01-31T09:12:03;97743.66;;;0.05;80.19
61109;BME280;46995;55.740;37.402;2023-01-31T09:14:47;97762.03;;;0.25;80.19
61109;BME280;46995;55.740;37.402;2023-01-31T09:17:15;97754.94;;;0.27;79.76
61109;BME280;46995;55.740;37.402;2023-01-31T09:19:41;97753.19;;;0.28;79.12
61109;BME280;46995;55.740;37.402;2023-01-31T09:22:12;97754.16;;;0.38;79.22
61109;BME280;46995;55.740;37.402;2023-01-31T09:24:41;97725.34;;;0.30;78.92
61109;BME280;46995;55.740;37.402;2023-01-31T09:27:08;97720.72;;;0.22;79.03
61109;BME280;46995;55.740;37.402;2023-01-31T09:29:34;97772.50;;;0.48;78.96
61109;BME280;46995;55.740;37.402;2023-01-31T09:32:08;97707.63;;;0.24;78.50
61109;BME280;46995;55.740;37.402;2023-01-31T09:34:34;97745.72;;;0.47;78.39
61109;BME280;46995;55.740;37.402;2023-01-31T09:37:02;97737.66;;;0.39;78.07
61109;BME280;46995;55.740;37.402;2023-01-31T09:39:28;97716.75;;;0.29;78.00
61109;BME280;46995;55.740;37.402;2023-01-31T09:42:23;97769.84;;;0.60;77.81
61109;BME280;46995;55.740;37.402;2023-01-31T09:45:10;97786.13;;;0.62;77.81
61109;BME280;46995;55.740;37.402;2023-01-31T09:47:42;97760.81;;;0.53;77.61
61109;BME280;46995;55.740;37.402;2023-01-31T09:50:18;97789.09;;;0.69;77.25
61109;BME280;46995;55.740;37.402;2023-01-31T09:52:45;97760.81;;;0.53;77.80
61109;BME280;46995;55.740;37.402;2023-01-31T09:55:19;97730.16;;;0.47;77.86
61109;BME280;46995;55.740;37.402;2023-01-31T09:57:55;97813.38;;;0.92;77.56
61109;BME280;46995;55.740;37.402;2023-01-31T10:00:28;97813.63;;;1.00;77.27
61109;BME280;46995;55.740;37.402;2023-01-31T10:03:25;97823.56;;;1.06;76.94
61109;BME280;46995;55.740;37.402;2023-01-31T10:08:49;97741.94;;;0.51;76.91
61109;BME280;46995;55.740;37.402;2023-01-31T10:14:31;97795.16;;;0.80;77.12
61109;BME280;46995;55.740;37.402;2023-01-31T10:22:19;97792.53;;;0.69;76.78
61109;BME280;46995;55.740;37.402;2023-01-31T10:24:57;97777.25;;;0.54;77.03
61109;BME280;46995;55.740;37.402;2023-01-31T10:27:41;97801.72;;;0.62;76.58
61109;BME280;46995;55.740;37.402;2023-01-31T10:30:47;97796.16;;;0.56;77.08
61109;BME280;46995;55.740;37.402;2023-01-31T10:35:54;97835.19;;;0.89;77.66
61109;BME280;46995;55.740;37.402;2023-01-31T10:38:31;97780.19;;;0.49;76.47
61109;BME280;46995;55.740;37.402;2023-01-31T10:41:21;97803.16;;;0.66;76.82
61109;BME280;46995;55.740;37.402;2023-01-31T10:43:58;97754.00;;;0.52;76.24
61109;BME280;46995;55.740;37.402;2023-01-31T10:46:25;97807.25;;;0.93;76.05
61109;BME280;46995;55.740;37.402;2023-01-31T10:48:51;97738.53;;;0.51;75.77
61109;BME280;46995;55.740;37.402;2023-01-31T10:51:38;97758.72;;;0.58;75.71
61109;BME280;46995;55.740;37.402;2023-01-31T10:54:21;97851.69;;;1.12;75.97
61109;BME280;46995;55.740;37.402;2023-01-31T10:56:56;97828.97;;;0.92;75.73
61109;BME280;46995;55.740;37.402;2023-01-31T10:59:32;97751.72;;;0.48;75.95
61109;BME280;46995;55.740;37.402;2023-01-31T11:02:00;97797.50;;;0.72;75.99
61109;BME280;46995;55.740;37.402;2023-01-31T11:04:40;97854.75;;;1.06;75.72
61109;BME280;46995;55.740;37.402;2023-01-31T11:07:08;97793.00;;;0.74;75.59
61109;BME280;46995;55.740;37.402;2023-01-31T11:09:48;97772.88;;;0.54;76.15
61109;BME280;46995;55.740;37.402;2023-01-31T11:12:42;97759.63;;;0.46;75.85
61109;BME280;46995;55.740;37.402;2023-01-31T11:15:18;97812.66;;;0.78;75.84
61109;BME280;46995;55.740;37.402;2023-01-31T11:17:47;97830.63;;;0.93;76.22
61109;BME280;46995;55.740;37.402;2023-01-31T11:20:26;97776.34;;;0.66;75.84
61109;BME280;46995;55.740;37.402;2023-01-31T11:22:56;97839.63;;;1.11;76.05
61109;BME280;46995;55.740;37.402;2023-01-31T11:25:25;97795.91;;;0.94;75.56
61109;BME280;46995;55.740;37.402;2023-01-31T11:27:53;97824.03;;;1.11;75.21
61109;BME280;46995;55.740;37.402;2023-01-31T11:32:52;97809.88;;;1.15;74.73
61109;BME280;46995;55.740;37.402;2023-01-31T11:37:59;97807.28;;;1.15;75.09
61109;BME280;46995;55.740;37.402;2023-01-31T11:40:26;97836.16;;;1.34;75.19
61109;BME280;46995;55.740;37.402;2023-01-31T11:45:28;97813.88;;;1.08;74.56
61109;BME280;46995;55.740;37.402;2023-01-31T11:47:57;97818.25;;;1.07;74.89
61109;BME280;46995;55.740;37.402;2023-01-31T11:50:36;97844.16;;;1.20;74.89
61109;BME280;46995;55.740;37.402;2023-01-31T11:53:12;97844.75;;;1.23;74.75
61109;BME280;46995;55.740;37.402;2023-01-31T11:55:40;97827.13;;;1.16;75.10
61109;BME280;46995;55.740;37.402;2023-01-31T11:58:31;97854.22;;;1.24;75.04
61109;BME280;46995;55.740;37.402;2023-01-31T12:01:07;97854.31;;;1.23;75.07
61109;BME280;46995;55.740;37.402;2023-01-31T12:03:38;97842.97;;;1.13;75.18
61109;BME280;46995;55.740;37.402;2023-01-31T12:06:07;97812.88;;;0.87;75.02
61109;BME280;46995;55.740;37.402;2023-01-31T12:08:36;97832.09;;;1.08;75.13
61109;BME280;46995;55.740;37.402;2023-01-31T12:11:34;97788.78;;;0.84;74.84
61109;BME280;46995;55.740;37.402;2023-01-31T12:16:33;97828.28;;;1.01;74.77
61109;BME280;46995;55.740;37.402;2023-01-31T12:19:24;97869.13;;;1.34;74.96
61109;BME280;46995;55.740;37.402;2023-01-31T12:22:08;97825.50;;;1.15;75.35
61109;BME280;46995;55.740;37.402;2023-01-31T12:27:57;97816.25;;;1.11;75.02
61109;BME280;46995;55.740;37.402;2023-01-31T12:39:45;97861.22;;;1.35;74.95
61109;BME280;46995;55.740;37.402;2023-01-31T12:45:30;97862.16;;;1.34;75.05
61109;BME280;46995;55.740;37.402;2023-01-31T12:48:24;97860.59;;;1.32;75.38
61109;BME280;46995;55.740;37.402;2023-01-31T12:54:33;97875.84;;;1.25;75.10
61109;BME280;46995;55.740;37.402;2023-01-31T12:59:55;97872.63;;;1.21;75.10
61109;BME280;46995;55.740;37.402;2023-01-31T13:07:59;97847.41;;;1.00;75.00
61109;BME280;46995;55.740;37.402;2023-01-31T13:10:36;97828.00;;;0.81;75.38
61109;BME280;46995;55.740;37.402;2023-01-31T13:13:05;97818.97;;;0.74;75.38
61109;BME280;46995;55.740;37.402;2023-01-31T13:16:29;97866.09;;;1.05;75.50
61109;BME280;46995;55.740;37.402;2023-01-31T13:19:01;97849.38;;;0.85;75.50
61109;BME280;46995;55.740;37.402;2023-01-31T13:21:33;97810.22;;;0.64;75.43
61109;BME280;46995;55.740;37.402;2023-01-31T13:24:09;97878.03;;;1.07;75.35
61109;BME280;46995;55.740;37.402;2023-01-31T13:26:49;97831.97;;;0.74;75.14
61109;BME280;46995;55.740;37.402;2023-01-31T13:29:37;97895.34;;;0.96;75.42
61109;BME280;46995;55.740;37.402;2023-01-31T13:32:40;97923.50;;;1.02;75.74
61109;BME280;46995;55.740;37.402;2023-01-31T13:35:13;97833.34;;;0.56;75.36
61109;BME280;46995;55.740;37.402;2023-01-31T13:37:49;97860.28;;;0.66;75.42
61109;BME280;46995;55.740;37.402;2023-01-31T13:43:18;97869.06;;;0.76;75.21
61109;BME280;46995;55.740;37.402;2023-01-31T13:45:57;97926.81;;;1.04;75.58
61109;BME280;46995;55.740;37.402;2023-01-31T13:51:57;97882.75;;;0.67;75.79
61109;BME280;46995;55.740;37.402;2023-01-31T13:54:47;97923.13;;;0.95;75.74
61109;BME280;46995;55.740;37.402;2023-01-31T13:57:40;97940.41;;;1.07;75.79
61109;BME280;46995;55.740;37.402;2023-01-31T14:03:16;97947.19;;;1.10;75.53
61109;BME280;46995;55.740;37.402;2023-01-31T14:05:59;97886.53;;;0.74;75.57
61109;BME280;46995;55.740;37.402;2023-01-31T14:13:45;97890.78;;;0.75;75.71
61109;BME280;46995;55.740;37.402;2023-01-31T14:16:34;97936.25;;;1.05;75.53
61109;BME280;46995;55.740;37.402;2023-01-31T14:19:25;97837.03;;;0.41;75.83
61109;BME280;46995;55.740;37.402;2023-01-31T14:22:02;97945.47;;;0.98;76.06
61109;BME280;46995;55.740;37.402;2023-01-31T14:27:25;97954.44;;;1.05;75.70
61109;BME280;46995;55.740;37.402;2023-01-31T14:33:01;97856.91;;;0.53;75.81
61109;BME280;46995;55.740;37.402;2023-01-31T14:35:32;97955.28;;;1.05;76.15
61109;BME280;46995;55.740;37.402;2023-01-31T14:41:33;97957.78;;;1.07;76.14
61109;BME280;46995;55.740;37.402;2023-01-31T14:44:23;97956.34;;;1.03;76.51
61109;BME280;46995;55.740;37.402;2023-01-31T14:50:17;97964.94;;;0.92;76.99
61109;BME280;46995;55.740;37.402;2023-01-31T14:58:50;97883.28;;;0.36;76.67
61109;BME280;46995;55.740;37.402;2023-01-31T15:01:19;97922.84;;;0.63;76.77
61109;BME280;46995;55.740;37.402;2023-01-31T15:06:41;97883.06;;;0.39;76.30
61109;BME280;46995;55.740;37.402;2023-01-31T15:11:44;97913.44;;;0.50;76.59
61109;BME280;46995;55.740;37.402;2023-01-31T15:14:31;97939.56;;;0.72;77.50
61109;BME280;46995;55.740;37.402;2023-01-31T15:19:43;97923.47;;;0.67;76.34
61109;BME280;46995;55.740;37.402;2023-01-31T15:22:15;97964.75;;;0.82;76.78
61109;BME280;46995;55.740;37.402;2023-01-31T15:24:54;97946.91;;;0.78;77.00
61109;BME280;46995;55.740;37.402;2023-01-31T15:27:27;97973.22;;;0.97;76.65
61109;BME280;46995;55.740;37.402;2023-01-31T15:32:46;97964.31;;;0.89;76.77
61109;BME280;46995;55.740;37.402;2023-01-31T15:35:22;97985.44;;;1.08;76.65
61109;BME280;46995;55.740;37.402;2023-01-31T15:38:21;97998.94;;;1.13;76.72
61109;BME280;46995;55.740;37.402;2023-01-31T15:43:36;97954.56;;;0.79;76.87
61109;BME280;46995;55.740;37.402;2023-01-31T15:46:18;97990.41;;;1.11;76.68